Lahaina, HI (96761)

11:11 AM HST on July 25, 2016 (GMT -1000)
West Mahi Pua | | Change Station

Elev 256 ft 20.92 °N, 156.68 °W | Updated 4 minutes ago

Partly Cloudy
Partly Cloudy
87.6 °F
Feels Like 96 °F
N
7.3
Wind Variable Wind from North

Today
High -- | Low -- °F
--% Chance of Precip.
Yesterday
High -- | Low -- °F
Precip. -- in
Pressure 30.00 in
Visibility 15.0 miles
Clouds Few 4000 ft
Heat Index 96 °F
Dew Point 73 °F
Humidity 63%
Rainfall 0.00 in
Snow Depth Not available.
5:58 AM 7:07 PM
Waning Gibbous, 62% visible
METAR PHJH 252045Z 34007KT 15SM FEW040 32/21 A3000
Pressure 30.00 in
Visibility 15.0 miles
Clouds Few 4000 ft
Heat Index 96 °F
Dew Point 73 °F
Humidity 63%
Rainfall 0.00 in
Snow Depth Not available.
5:58 AM 7:07 PM
Waning Gibbous, 62% visible
METAR PHJH 252045Z 34007KT 15SM FEW040 32/21 A3000

10-Day Weather Forecast

Almanac

Astronomy

Jul. 25, 2016 Rise Set
Actual Time
Civil Twilight
Nautical Twilight
Astronomical Twilight
Moon
Length of Visible Light
Length of Day
Tomorrow will be .
, % of the Moon is Illuminated

Today's Extremes

State Highs State Lows

Community

WunderPhotos

Upload Photos

1,927,423 photos uploaded!

WunderBlog® & News

Nearby

Air Quality

  Air Quality AQ Index Pollutant
Not available.

Snow Depth

Station Depth Elevation

Earthquake Activity

City Distance Mag. Time & Date
Minimum magnitude displayed is 2.5.

Coastal Water Temperatures

Place Temperature

Stations

Nearby Weather Stations

Station Location Temp. Windchill Dew Point Humidity Wind Precip. Elev Updated Type
                   

Watches & Warnings

There are currently no watches in effect.